Time;durP1;ratioP1;P1;durP2;ratioP2;P2;SDS_P1;SDS_P2;PMS_P1;PMS_P2;Temp;Humidity;BMP_temperature;BMP_pressure;BME280_temperature;BME280_humidity;BME280_pressure;Samples;Min_cycle;Max_cycle;Signal;HPM_P1;HPM_P2
2022/03/01 00:02:23;;;;;;;19.03;13.43;;;1.00;99.90;;;;;;5115450;28;20187;-64
2022/03/01 00:04:49;;;;;;;17.77;13.20;;;1.00;99.90;;;;;;5116551;28;20237;-64
2022/03/01 00:07:15;;;;;;;15.60;12.47;;;1.00;99.90;;;;;;5116854;28;20185;-64
2022/03/01 00:09:40;;;;;;;19.63;14.23;;;1.10;99.90;;;;;;5117061;28;20224;-63
2022/03/01 00:12:07;;;;;;;19.03;14.47;;;1.10;99.90;;;;;;5116957;28;20249;-63
2022/03/01 00:14:32;;;;;;;19.50;14.27;;;1.00;99.90;;;;;;5116534;28;20192;-64
2022/03/01 00:16:58;;;;;;;20.43;15.73;;;1.00;99.90;;;;;;5116528;28;20175;-63
2022/03/01 00:19:27;;;;;;;21.60;15.03;;;1.00;99.90;;;;;;5116326;28;20180;-64
2022/03/01 00:21:53;;;;;;;20.27;14.50;;;0.90;99.90;;;;;;5116256;28;20185;-63
2022/03/01 00:24:19;;;;;;;19.37;14.30;;;0.90;99.90;;;;;;5116571;28;20279;-64
2022/03/01 00:26:44;;;;;;;20.23;14.50;;;0.80;99.90;;;;;;5116235;28;20273;-63
2022/03/01 00:29:10;;;;;;;20.27;14.20;;;0.80;99.90;;;;;;5116157;28;20185;-63
2022/03/01 00:31:36;;;;;;;21.13;13.60;;;0.70;99.90;;;;;;5116284;28;20189;-63
2022/03/01 00:34:01;;;;;;;18.90;14.23;;;0.70;99.90;;;;;;5116328;28;20193;-63
2022/03/01 00:36:27;;;;;;;19.77;13.87;;;0.70;99.90;;;;;;5116624;28;20168;-63
2022/03/01 00:38:53;;;;;;;17.53;13.63;;;0.60;99.90;;;;;;5116262;28;20633;-63
2022/03/01 00:41:19;;;;;;;16.23;13.57;;;0.60;99.90;;;;;;5115991;28;20176;-63
2022/03/01 00:43:45;;;;;;;15.33;13.37;;;0.70;99.90;;;;;;5116162;28;20203;-63
2022/03/01 00:46:10;;;;;;;17.70;13.10;;;0.70;99.90;;;;;;5114385;28;20665;-64
2022/03/01 00:48:36;;;;;;;19.20;13.33;;;0.60;99.90;;;;;;5115809;28;20172;-64
2022/03/01 00:51:02;;;;;;;17.63;12.87;;;0.60;99.90;;;;;;5116982;28;20207;-63
2022/03/01 00:53:27;;;;;;;17.30;12.60;;;0.50;99.90;;;;;;5117942;28;20296;-62
2022/03/01 00:55:53;;;;;;;17.93;13.30;;;0.40;99.90;;;;;;5116372;28;20181;-62
2022/03/01 00:58:19;;;;;;;16.80;12.23;;;0.30;99.90;;;;;;5116908;28;20183;-64
2022/03/01 01:00:45;;;;;;;19.33;13.53;;;0.40;99.90;;;;;;5115778;28;20557;-63
2022/03/01 01:03:10;;;;;;;16.27;13.53;;;0.30;99.90;;;;;;5114368;28;20722;-63
2022/03/01 01:05:36;;;;;;;18.07;13.43;;;0.30;99.90;;;;;;5115816;28;20204;-64
2022/03/01 01:08:02;;;;;;;18.97;13.47;;;0.20;99.90;;;;;;5115439;28;20180;-64
2022/03/01 01:10:28;;;;;;;16.70;13.17;;;0.20;99.90;;;;;;5115422;28;20672;-64
2022/03/01 01:12:53;;;;;;;19.40;13.80;;;0.10;99.90;;;;;;5115234;28;20252;-64
2022/03/01 01:15:20;;;;;;;15.40;12.50;;;0.00;99.90;;;;;;5115182;27;20629;-63
2022/03/01 01:17:46;;;;;;;18.87;12.90;;;0.10;99.90;;;;;;5115311;28;20172;-63
2022/03/01 01:20:13;;;;;;;17.57;13.63;;;0.00;99.90;;;;;;5113878;28;20663;-63
2022/03/01 01:22:39;;;;;;;17.40;12.90;;;0.00;99.90;;;;;;5115164;28;20180;-64
2022/03/01 01:25:07;;;;;;;14.73;12.30;;;0.00;99.90;;;;;;5115081;28;20183;-64
2022/03/01 01:27:33;;;;;;;18.30;13.00;;;0.00;99.90;;;;;;5115050;28;20188;-65
2022/03/01 01:29:59;;;;;;;15.13;13.23;;;0.00;99.90;;;;;;5115364;28;20514;-65
2022/03/01 01:32:25;;;;;;;17.83;13.30;;;0.00;99.90;;;;;;5115032;28;20212;-65
2022/03/01 01:34:52;;;;;;;13.53;12.10;;;0.10;99.90;;;;;;5115500;28;20276;-65
2022/03/01 01:37:18;;;;;;;16.97;12.73;;;0.10;99.90;;;;;;5113621;28;20275;-64
2022/03/01 01:39:44;;;;;;;16.67;13.23;;;0.10;99.90;;;;;;5115105;28;20216;-64
2022/03/01 01:42:10;;;;;;;20.13;13.23;;;0.10;99.90;;;;;;5114864;28;20200;-64
2022/03/01 01:44:36;;;;;;;18.43;13.70;;;0.10;99.90;;;;;;5114654;28;20648;-64
2022/03/01 01:47:01;;;;;;;16.20;12.57;;;0.10;99.90;;;;;;5115281;28;20176;-64
2022/03/01 01:49:27;;;;;;;16.53;12.87;;;0.00;99.90;;;;;;5113306;28;20632;-64
2022/03/01 01:51:54;;;;;;;20.37;14.00;;;0.00;99.90;;;;;;5114551;28;20227;-65
2022/03/01 01:54:20;;;;;;;17.73;13.03;;;0.10;99.90;;;;;;5114754;28;20664;-64
2022/03/01 01:56:45;;;;;;;19.20;13.23;;;0.10;99.90;;;;;;5114462;28;20207;-65
2022/03/01 01:59:11;;;;;;;17.60;13.40;;;0.00;99.90;;;;;;5114170;28;20173;-65
2022/03/01 02:01:37;;;;;;;16.20;12.73;;;0.10;99.90;;;;;;5114751;28;20171;-65
2022/03/01 02:04:03;;;;;;;20.33;13.63;;;0.00;99.90;;;;;;5114615;28;20200;-64
2022/03/01 02:06:29;;;;;;;17.47;12.53;;;0.00;99.90;;;;;;5114711;28;20168;-65
2022/03/01 02:08:54;;;;;;;20.63;13.70;;;0.00;99.90;;;;;;5114243;28;20176;-65
2022/03/01 02:11:20;;;;;;;18.23;12.67;;;0.00;99.90;;;;;;5114301;28;20169;-64
2022/03/01 02:13:46;;;;;;;16.40;13.03;;;0.00;99.90;;;;;;5114064;28;20304;-65
2022/03/01 02:16:12;;;;;;;18.27;12.83;;;-0.10;99.90;;;;;;5114163;28;20637;-64
2022/03/01 02:18:38;;;;;;;17.93;13.10;;;-0.20;99.90;;;;;;5114046;28;20180;-64
2022/03/01 02:21:04;;;;;;;17.63;13.67;;;-0.20;99.90;;;;;;5112843;28;20225;-64
2022/03/01 02:23:30;;;;;;;20.87;14.33;;;-0.30;99.90;;;;;;5114470;28;20200;-65
2022/03/01 02:25:56;;;;;;;14.57;11.63;;;-0.30;99.90;;;;;;5114666;28;20641;-66
2022/03/01 02:28:21;;;;;;;22.80;14.60;;;-0.30;99.90;;;;;;5114127;28;20241;-65
2022/03/01 02:30:47;;;;;;;18.73;13.13;;;-0.20;99.90;;;;;;5114124;28;20229;-65
2022/03/01 02:33:13;;;;;;;16.57;12.93;;;-0.10;99.90;;;;;;5113821;28;20252;-64
2022/03/01 02:35:39;;;;;;;16.17;13.00;;;-0.20;99.90;;;;;;5114320;28;20229;-65
2022/03/01 02:38:05;;;;;;;21.00;13.47;;;-0.20;99.90;;;;;;5114245;28;20177;-65
2022/03/01 02:40:31;;;;;;;16.53;12.67;;;-0.20;99.90;;;;;;5113889;28;20181;-65
2022/03/01 02:42:57;;;;;;;18.50;13.30;;;-0.30;99.90;;;;;;5113867;28;20200;-64
2022/03/01 02:45:23;;;;;;;16.17;12.70;;;-0.40;99.90;;;;;;5112493;28;20533;-65
2022/03/01 02:47:49;;;;;;;17.40;13.60;;;-0.40;99.90;;;;;;5113760;28;20187;-65
2022/03/01 02:50:16;;;;;;;15.93;13.37;;;-0.40;99.90;;;;;;5114055;28;20177;-64
2022/03/01 02:52:43;;;;;;;19.47;12.90;;;-0.40;99.90;;;;;;5113593;28;20569;-64
2022/03/01 02:55:10;;;;;;;14.97;12.33;;;-0.40;99.90;;;;;;5113756;28;20585;-65
2022/03/01 02:57:35;;;;;;;20.10;14.03;;;-0.40;99.90;;;;;;5113810;28;20204;-65
2022/03/01 03:00:05;;;;;;;20.00;12.87;;;-0.40;99.90;;;;;;5113742;28;20197;-65
2022/03/01 03:02:30;;;;;;;16.00;13.10;;;-0.50;99.90;;;;;;5113761;28;20172;-65
2022/03/01 03:04:56;;;;;;;16.87;12.90;;;-0.60;99.90;;;;;;5113563;28;20686;-65
2022/03/01 03:07:22;;;;;;;16.80;13.40;;;-0.60;99.90;;;;;;5113892;28;20180;-65
2022/03/01 03:09:47;;;;;;;16.73;13.70;;;-0.60;99.90;;;;;;5116431;28;20176;-65
2022/03/01 03:12:13;;;;;;;17.10;13.20;;;-0.70;99.90;;;;;;5117627;28;20215;-64
2022/03/01 03:14:39;;;;;;;18.33;13.17;;;-0.60;99.90;;;;;;5117671;28;20199;-64
2022/03/01 03:17:05;;;;;;;18.30;14.07;;;-0.60;99.90;;;;;;5117884;28;20181;-65
2022/03/01 03:19:32;;;;;;;18.07;13.20;;;-0.60;99.90;;;;;;5116222;28;20176;-65
2022/03/01 03:21:57;;;;;;;20.03;13.03;;;-0.70;99.90;;;;;;5117497;28;20211;-65
2022/03/01 03:24:23;;;;;;;16.23;13.07;;;-0.60;99.90;;;;;;5117467;28;20219;-64
2022/03/01 03:26:49;;;;;;;21.83;14.60;;;-0.60;99.90;;;;;;5117611;28;20177;-64
2022/03/01 03:29:15;;;;;;;21.40;13.97;;;-0.60;99.90;;;;;;5116166;28;20278;-65
2022/03/01 03:31:42;;;;;;;19.03;14.27;;;-0.70;99.90;;;;;;5115814;28;20683;-64
2022/03/01 03:34:09;;;;;;;18.53;13.47;;;-0.60;99.90;;;;;;5116005;28;20203;-65
2022/03/01 03:36:39;;;;;;;20.77;13.87;;;-0.60;99.90;;;;;;5117491;28;20644;-65
2022/03/01 03:39:08;;;;;;;19.10;13.77;;;-0.50;99.90;;;;;;5117163;28;20217;-64
2022/03/01 03:41:34;;;;;;;15.40;13.57;;;-0.50;99.90;;;;;;5115852;28;20184;-65
2022/03/01 03:44:00;;;;;;;19.10;13.57;;;-0.50;99.90;;;;;;5117018;28;20192;-65
2022/03/01 03:46:27;;;;;;;17.30;14.33;;;-0.40;99.90;;;;;;5117363;28;20184;-64
2022/03/01 03:48:52;;;;;;;18.87;14.17;;;-0.40;99.90;;;;;;5117233;28;20208;-65
2022/03/01 03:51:19;;;;;;;17.93;13.90;;;-0.50;99.90;;;;;;5115612;28;20236;-65
2022/03/01 03:53:46;;;;;;;20.70;15.00;;;-0.60;99.90;;;;;;5116628;28;20208;-65
2022/03/01 03:56:12;;;;;;;18.73;14.77;;;-0.60;99.90;;;;;;5117192;28;20188;-65
2022/03/01 03:58:37;;;;;;;19.17;14.13;;;-0.70;99.90;;;;;;5117012;28;20176;-64
2022/03/01 04:01:04;;;;;;;18.33;14.00;;;-0.60;99.90;;;;;;5116782;28;20186;-65
2022/03/01 04:03:30;;;;;;;18.73;13.97;;;-0.70;99.90;;;;;;5116679;28;20223;-64
2022/03/01 04:05:56;;;;;;;19.30;14.23;;;-0.60;99.90;;;;;;5116937;28;20632;-64
2022/03/01 04:08:21;;;;;;;19.93;12.90;;;-0.60;99.90;;;;;;5116839;28;20181;-65
2022/03/01 04:10:48;;;;;;;17.63;14.53;;;-0.60;99.90;;;;;;5115300;28;20667;-65
2022/03/01 04:13:13;;;;;;;19.03;14.67;;;-0.50;99.90;;;;;;5116422;28;20637;-65
2022/03/01 04:15:39;;;;;;;19.57;14.90;;;-0.50;99.90;;;;;;5116659;28;20232;-65
2022/03/01 04:18:05;;;;;;;19.23;14.47;;;-0.50;99.90;;;;;;5115132;28;20176;-65
2022/03/01 04:20:31;;;;;;;21.13;14.97;;;-0.50;99.90;;;;;;5115719;28;20204;-65
2022/03/01 04:22:57;;;;;;;18.37;14.27;;;-0.40;99.90;;;;;;5116186;28;20199;-65
2022/03/01 04:25:23;;;;;;;19.70;14.47;;;-0.40;99.90;;;;;;5114953;28;20180;-65
2022/03/01 04:27:49;;;;;;;22.17;14.97;;;-0.40;99.90;;;;;;5116228;28;20698;-65
2022/03/01 04:30:15;;;;;;;20.00;14.60;;;-0.40;99.90;;;;;;5116746;28;20197;-65
2022/03/01 04:32:42;;;;;;;17.70;14.40;;;-0.40;99.90;;;;;;5115913;28;20289;-65
2022/03/01 04:35:09;;;;;;;20.13;14.43;;;-0.40;99.90;;;;;;5116462;28;20176;-65
2022/03/01 04:37:39;;;;;;;21.37;15.57;;;-0.40;99.90;;;;;;5116378;28;20648;-65
2022/03/01 04:40:07;;;;;;;23.37;14.73;;;-0.40;99.90;;;;;;5116607;28;20153;-65
2022/03/01 04:42:34;;;;;;;23.57;15.83;;;-0.30;99.90;;;;;;5115946;27;20194;-64
2022/03/01 04:44:59;;;;;;;21.90;14.53;;;-0.30;99.90;;;;;;5115877;28;20672;-65
2022/03/01 04:47:26;;;;;;;18.10;14.03;;;-0.40;99.90;;;;;;5115798;28;20201;-65
2022/03/01 04:49:52;;;;;;;19.70;14.13;;;-0.40;99.90;;;;;;5116443;28;20180;-65
2022/03/01 04:52:18;;;;;;;21.33;14.70;;;-0.40;99.90;;;;;;5114832;28;20671;-64
2022/03/01 04:54:44;;;;;;;19.90;14.97;;;-0.40;99.90;;;;;;5114259;28;20591;-64
2022/03/01 04:57:10;;;;;;;19.27;14.83;;;-0.40;99.90;;;;;;5114371;28;20181;-65
2022/03/01 04:59:36;;;;;;;22.30;15.47;;;-0.40;99.90;;;;;;5116052;28;20168;-64
2022/03/01 05:02:02;;;;;;;19.70;13.80;;;-0.40;99.90;;;;;;5114642;28;20241;-65
2022/03/01 05:04:28;;;;;;;20.03;14.50;;;-0.50;99.90;;;;;;5115571;28;20227;-64
2022/03/01 05:06:54;;;;;;;23.57;15.03;;;-0.50;99.90;;;;;;5115843;28;20277;-65
2022/03/01 05:09:21;;;;;;;19.23;15.10;;;-0.50;99.90;;;;;;5115428;28;20220;-66
2022/03/01 05:11:51;;;;;;;22.57;14.33;;;-0.50;99.90;;;;;;5115409;28;20179;-65
2022/03/01 05:14:18;;;;;;;19.30;13.93;;;-0.40;99.90;;;;;;5115572;28;20273;-65
2022/03/01 05:16:45;;;;;;;20.87;14.93;;;-0.40;99.90;;;;;;5115530;28;20172;-66
2022/03/01 05:19:12;;;;;;;20.40;14.23;;;-0.40;99.90;;;;;;5115224;28;20176;-67
2022/03/01 05:21:38;;;;;;;17.80;14.27;;;-0.30;99.90;;;;;;5113773;28;20176;-65
2022/03/01 05:24:04;;;;;;;20.13;14.73;;;-0.30;99.90;;;;;;5115097;27;20192;-65
2022/03/01 05:26:30;;;;;;;18.77;14.23;;;-0.20;99.90;;;;;;5113948;28;20229;-64
2022/03/01 05:28:57;;;;;;;19.37;13.90;;;-0.20;99.90;;;;;;5116652;28;20177;-65
2022/03/01 05:31:23;;;;;;;19.87;14.70;;;0.00;99.90;;;;;;5115109;28;20221;-63
2022/03/01 05:33:49;;;;;;;17.97;14.10;;;0.20;99.90;;;;;;5112944;28;20323;-65
2022/03/01 05:36:15;;;;;;;21.40;13.80;;;0.30;99.90;;;;;;5115383;28;20653;-63
2022/03/01 05:38:42;;;;;;;16.83;12.93;;;0.50;99.90;;;;;;5113659;28;20204;-63
2022/03/01 05:41:08;;;;;;;14.03;11.90;;;0.70;99.90;;;;;;5114143;28;20187;-64
2022/03/01 05:43:35;;;;;;;13.67;12.17;;;0.80;99.90;;;;;;5114536;28;20676;-64
2022/03/01 05:46:01;;;;;;;15.80;12.47;;;0.90;99.90;;;;;;5114457;28;20176;-64
2022/03/01 05:48:27;;;;;;;17.07;13.00;;;0.90;99.90;;;;;;5114843;28;20176;-63
2022/03/01 05:50:54;;;;;;;17.17;13.43;;;0.90;99.90;;;;;;5114554;28;20180;-63
2022/03/01 05:53:20;;;;;;;18.17;13.37;;;0.80;99.90;;;;;;5114677;28;20204;-63
2022/03/01 05:55:46;;;;;;;17.03;12.53;;;0.80;99.90;;;;;;5114405;28;20174;-63
2022/03/01 05:58:12;;;;;;;18.27;14.27;;;0.80;99.90;;;;;;5114433;28;20171;-63
2022/03/01 06:00:38;;;;;;;19.90;13.93;;;0.80;99.90;;;;;;5114469;28;20637;-65
2022/03/01 06:03:04;;;;;;;16.03;12.33;;;0.90;99.90;;;;;;5114539;28;20235;-63
2022/03/01 06:05:30;;;;;;;17.93;13.90;;;0.90;99.90;;;;;;5114302;28;20182;-63
2022/03/01 06:07:57;;;;;;;15.47;12.50;;;1.00;99.90;;;;;;5114550;27;20183;-64
2022/03/01 06:10:23;;;;;;;14.87;12.30;;;1.20;99.90;;;;;;5114216;28;20659;-64
2022/03/01 06:12:49;;;;;;;17.37;12.37;;;1.30;99.90;;;;;;5113976;28;20288;-64
2022/03/01 06:15:15;;;;;;;17.53;12.67;;;1.40;99.90;;;;;;5114473;27;20598;-63
2022/03/01 06:17:41;;;;;;;16.13;12.10;;;1.50;99.90;;;;;;5114438;28;20260;-63
2022/03/01 06:20:09;;;;;;;19.57;11.87;;;1.60;99.90;;;;;;5114305;28;20207;-63
2022/03/01 06:22:35;;;;;;;16.10;12.57;;;1.80;99.90;;;;;;5114465;28;20233;-63
2022/03/01 06:25:01;;;;;;;18.47;12.57;;;1.90;99.90;;;;;;5114851;28;20180;-63
2022/03/01 06:27:27;;;;;;;17.17;12.37;;;2.00;99.90;;;;;;5114258;28;20206;-63
2022/03/01 06:29:53;;;;;;;19.93;12.67;;;2.10;99.90;;;;;;5114387;28;20582;-64
2022/03/01 06:32:19;;;;;;;16.50;12.70;;;2.20;99.90;;;;;;5114127;28;20219;-63
2022/03/01 06:34:45;;;;;;;17.67;12.40;;;2.30;99.90;;;;;;5113925;28;20192;-63
2022/03/01 06:37:13;;;;;;;20.57;13.00;;;2.40;99.90;;;;;;5114153;28;20203;-63
2022/03/01 06:39:43;;;;;;;16.43;11.93;;;2.40;99.90;;;;;;5114131;28;20207;-63
2022/03/01 06:42:10;;;;;;;18.03;12.87;;;2.50;99.90;;;;;;5113849;28;20225;-65
2022/03/01 06:44:36;;;;;;;17.27;12.33;;;2.50;99.90;;;;;;5113459;28;20666;-64
2022/03/01 06:47:03;;;;;;;17.63;13.20;;;2.60;99.90;;;;;;5113810;28;20246;-63
2022/03/01 06:49:29;;;;;;;19.30;13.07;;;2.70;99.90;;;;;;5113679;28;20263;-63
2022/03/01 06:51:55;;;;;;;15.23;12.30;;;2.70;99.90;;;;;;5113871;28;20207;-66
2022/03/01 06:54:21;;;;;;;17.20;12.53;;;2.80;99.90;;;;;;5113652;28;20245;-63
2022/03/01 06:56:47;;;;;;;18.00;12.90;;;2.90;99.90;;;;;;5113897;28;20173;-63
2022/03/01 06:59:13;;;;;;;18.70;12.93;;;3.00;99.90;;;;;;5112347;28;20267;-63
2022/03/01 07:01:39;;;;;;;16.70;12.63;;;3.10;99.90;;;;;;5113631;28;20185;-63
2022/03/01 07:04:05;;;;;;;16.97;12.53;;;3.10;99.90;;;;;;5113661;28;20188;-63
2022/03/01 07:06:31;;;;;;;16.40;12.50;;;3.20;99.90;;;;;;5114039;28;20173;-63
2022/03/01 07:08:57;;;;;;;21.20;12.83;;;3.30;99.90;;;;;;5113867;28;20196;-63
2022/03/01 07:11:22;;;;;;;18.83;12.63;;;3.40;99.90;;;;;;5112462;28;20283;-63
2022/03/01 07:13:49;;;;;;;14.10;11.47;;;3.40;99.90;;;;;;5113610;28;20210;-62
2022/03/01 07:16:14;;;;;;;17.80;11.33;;;3.50;99.90;;;;;;5112226;28;20188;-63
2022/03/01 07:18:41;;;;;;;15.47;12.13;;;3.60;99.90;;;;;;5114088;28;20176;-63
2022/03/01 07:21:07;;;;;;;15.50;11.73;;;3.70;99.90;;;;;;5112858;28;20676;-63
2022/03/01 07:23:34;;;;;;;18.83;12.57;;;3.80;99.90;;;;;;5113861;28;20231;-63
2022/03/01 07:26:01;;;;;;;16.60;11.67;;;4.00;99.90;;;;;;5113894;28;20225;-63
2022/03/01 07:28:27;;;;;;;15.53;10.27;;;4.10;99.90;;;;;;5113638;28;20172;-63
2022/03/01 07:30:54;;;;;;;15.27;11.17;;;4.20;99.90;;;;;;5113662;28;20599;-64
2022/03/01 07:33:20;;;;;;;16.57;11.67;;;4.30;99.90;;;;;;5113816;28;20219;-62
2022/03/01 07:35:46;;;;;;;19.40;13.00;;;4.30;99.90;;;;;;5113505;28;20544;-63
2022/03/01 07:38:11;;;;;;;17.73;11.40;;;4.30;99.90;;;;;;5112225;28;20176;-63
2022/03/01 07:40:37;;;;;;;15.33;10.97;;;4.30;99.90;;;;;;5113349;28;20169;-63
2022/03/01 07:43:03;;;;;;;16.80;11.90;;;4.30;99.90;;;;;;5113541;28;20200;-63
2022/03/01 07:45:29;;;;;;;17.13;11.80;;;4.40;99.90;;;;;;5113304;28;20521;-63
2022/03/01 07:47:56;;;;;;;15.43;11.70;;;4.60;99.90;;;;;;5113331;28;20644;-62
2022/03/01 07:50:22;;;;;;;16.37;11.20;;;5.00;99.90;;;;;;5113768;28;20176;-63
2022/03/01 07:52:48;;;;;;;13.80;10.80;;;5.60;99.90;;;;;;5113026;28;20236;-63
2022/03/01 07:55:14;;;;;;;16.00;10.77;;;6.30;99.90;;;;;;5113182;28;20200;-63
2022/03/01 07:57:39;;;;;;;19.60;11.37;;;6.50;99.90;;;;;;5116742;28;20176;-63
2022/03/01 08:00:09;;;;;;;13.17;10.37;;;6.60;99.90;;;;;;5117431;28;20246;-63
2022/03/01 08:02:36;;;;;;;14.87;10.33;;;6.70;99.90;;;;;;5116720;28;20600;-65
2022/03/01 08:05:03;;;;;;;13.77;10.80;;;6.70;99.90;;;;;;5116853;28;20181;-64
2022/03/01 08:07:28;;;;;;;17.20;10.90;;;6.50;99.90;;;;;;5116663;28;20180;-64
2022/03/01 08:09:54;;;;;;;14.97;11.23;;;6.30;99.90;;;;;;5116973;28;20176;-63
2022/03/01 08:12:20;;;;;;;14.67;11.73;;;6.00;99.90;;;;;;5116510;28;20578;-63
2022/03/01 08:14:46;;;;;;;14.80;10.83;;;5.80;99.90;;;;;;5116466;28;20192;-64
2022/03/01 08:17:12;;;;;;;15.77;11.33;;;5.70;99.90;;;;;;5116444;28;20176;-64
2022/03/01 08:19:37;;;;;;;14.00;11.10;;;5.60;99.90;;;;;;5116741;28;20168;-63
2022/03/01 08:22:03;;;;;;;14.37;11.17;;;5.60;99.90;;;;;;5116487;28;20528;-63
2022/03/01 08:24:29;;;;;;;14.83;11.20;;;5.50;99.90;;;;;;5116237;28;20199;-63
2022/03/01 08:26:55;;;;;;;15.80;10.70;;;5.60;99.90;;;;;;5116223;28;20636;-64
2022/03/01 08:29:20;;;;;;;17.47;11.00;;;5.90;99.90;;;;;;5116215;28;20176;-64
2022/03/01 08:31:46;;;;;;;13.50;10.67;;;6.30;99.90;;;;;;5116178;28;20196;-63
2022/03/01 08:34:12;;;;;;;13.90;10.30;;;6.80;99.90;;;;;;5116162;28;20218;-64
2022/03/01 08:36:39;;;;;;;13.87;10.70;;;7.20;99.90;;;;;;5116054;28;20175;-63
2022/03/01 08:39:04;;;;;;;17.60;10.57;;;7.60;99.90;;;;;;5116039;28;20173;-64
2022/03/01 08:41:31;;;;;;;11.80;9.30;;;8.40;99.90;;;;;;5114635;28;20184;-63
2022/03/01 08:43:57;;;;;;;13.60;9.73;;;9.40;99.90;;;;;;5115864;28;20196;-63
2022/03/01 08:46:23;;;;;;;14.32;10.13;;;10.50;99.90;;;;;;5116404;28;20187;-64
2022/03/01 08:48:53;;;;;;;11.20;8.77;;;11.50;99.90;;;;;;5116104;28;20173;-65
2022/03/01 08:51:22;;;;;;;13.00;10.43;;;12.50;99.90;;;;;;5115715;28;20171;-63
2022/03/01 08:53:49;;;;;;;13.43;9.70;;;11.20;99.90;;;;;;5115815;28;20260;-64
2022/03/01 08:56:16;;;;;;;14.13;9.80;;;10.90;99.90;;;;;;5115648;28;20176;-63
2022/03/01 08:58:43;;;;;;;16.25;9.82;;;10.80;99.90;;;;;;5115926;28;20184;-63
2022/03/01 09:01:09;;;;;;;14.43;9.57;;;10.70;99.90;;;;;;5116247;28;20246;-64
2022/03/01 09:03:36;;;;;;;12.73;9.82;;;10.30;99.90;;;;;;5115455;28;20192;-66
2022/03/01 09:06:05;;;;;;;13.33;9.67;;;10.00;99.90;;;;;;5115947;28;20609;-63
2022/03/01 09:08:35;;;;;;;14.33;10.90;;;9.60;99.90;;;;;;5114347;28;20594;-63
2022/03/01 09:11:01;;;;;;;15.43;11.03;;;9.10;99.90;;;;;;5115866;28;20161;-63
2022/03/01 09:13:27;;;;;;;13.20;10.77;;;9.10;99.90;;;;;;5115456;28;20203;-64
2022/03/01 09:15:54;;;;;;;12.80;9.87;;;9.50;99.90;;;;;;5114068;28;20536;-63
2022/03/01 09:18:21;;;;;;;13.20;9.40;;;10.00;99.90;;;;;;5115215;28;20175;-63
2022/03/01 09:20:47;;;;;;;14.00;10.40;;;9.90;99.90;;;;;;5115261;28;20225;-62
2022/03/01 09:23:13;;;;;;;12.93;10.40;;;9.80;99.90;;;;;;5115157;28;20537;-63
2022/03/01 09:25:39;;;;;;;15.57;10.53;;;9.40;99.90;;;;;;5113962;28;20184;-64
2022/03/01 09:28:05;;;;;;;13.13;9.80;;;9.40;99.90;;;;;;5115291;28;20660;-62
2022/03/01 09:30:31;;;;;;;14.83;10.27;;;9.50;99.90;;;;;;5115070;28;20181;-63
2022/03/01 09:32:56;;;;;;;14.80;10.43;;;9.70;99.90;;;;;;5115110;28;20282;-63
2022/03/01 09:35:22;;;;;;;14.50;10.40;;;9.10;99.90;;;;;;5115045;28;20168;-64
2022/03/01 09:37:48;;;;;;;14.30;10.10;;;8.60;99.90;;;;;;5114875;28;20180;-63
2022/03/01 09:40:14;;;;;;;14.83;10.57;;;8.40;99.90;;;;;;5115445;28;20176;-63
2022/03/01 09:42:41;;;;;;;17.83;10.53;;;8.20;99.90;;;;;;5114835;28;20173;-63
2022/03/01 09:45:08;;;;;;;13.23;10.03;;;8.00;99.90;;;;;;5115076;28;20196;-63
2022/03/01 09:47:34;;;;;;;20.13;10.67;;;8.00;99.90;;;;;;5114741;28;20521;-63
2022/03/01 09:50:00;;;;;;;14.00;10.17;;;7.90;99.90;;;;;;5113405;28;20173;-63
2022/03/01 09:52:26;;;;;;;15.00;9.90;;;8.20;99.90;;;;;;5114887;28;20196;-63
2022/03/01 09:54:52;;;;;;;13.73;9.57;;;8.30;99.90;;;;;;5113390;28;20193;-63
2022/03/01 09:57:19;;;;;;;14.83;10.60;;;8.50;99.90;;;;;;5114551;28;20172;-63
2022/03/01 09:59:46;;;;;;;14.17;10.37;;;8.60;99.90;;;;;;5114499;28;20176;-64
2022/03/01 10:02:12;;;;;;;17.77;10.77;;;8.60;99.90;;;;;;5114573;28;20192;-62
2022/03/01 10:04:58;;;;;;;13.00;9.70;;;8.50;99.90;;;;;;5114529;28;20204;-63
2022/03/01 10:07:26;;;;;;;12.53;9.73;;;8.40;99.90;;;;;;5114400;27;20215;-64
2022/03/01 10:09:53;;;;;;;12.47;9.57;;;8.50;99.90;;;;;;5114692;28;20700;-63
2022/03/01 10:12:26;;;;;;;12.83;9.57;;;8.60;99.90;;;;;;5114603;28;20241;-63
2022/03/01 10:15:03;;;;;;;13.80;9.90;;;8.50;99.90;;;;;;5113248;28;20204;-63
2022/03/01 10:17:40;;;;;;;14.83;9.87;;;8.60;99.90;;;;;;5114623;28;20534;-64
2022/03/01 10:20:12;;;;;;;16.67;10.77;;;8.60;99.90;;;;;;5113534;28;20179;-64
2022/03/01 10:22:51;;;;;;;12.77;8.80;;;8.60;99.90;;;;;;5114594;28;20489;-63
2022/03/01 10:25:22;;;;;;;15.50;9.53;;;8.70;99.90;;;;;;5114153;28;20191;-64
2022/03/01 10:27:50;;;;;;;12.70;9.40;;;8.70;99.90;;;;;;5114023;28;20169;-63
2022/03/01 10:30:32;;;;;;;16.20;9.47;;;8.70;99.90;;;;;;5114279;28;20259;-63
2022/03/01 10:33:07;;;;;;;13.80;9.47;;;8.70;99.90;;;;;;5114059;28;20213;-63
2022/03/01 10:35:33;;;;;;;15.93;9.77;;;8.60;99.90;;;;;;5113951;28;20178;-63
2022/03/01 10:38:01;;;;;;;13.07;9.07;;;8.70;99.90;;;;;;5114239;28;20172;-63
2022/03/01 10:40:27;;;;;;;16.20;9.97;;;9.00;99.90;;;;;;5113817;28;20588;-64
2022/03/01 10:43:26;;;;;;;12.57;9.13;;;9.20;99.90;;;;;;5112455;28;20263;-64
2022/03/01 10:45:52;;;;;;;11.63;8.90;;;9.50;99.90;;;;;;5080439;28;20184;-63
2022/03/01 10:48:24;;;;;;;11.63;8.73;;;9.60;99.90;;;;;;5112539;28;20544;-64
2022/03/01 10:51:02;;;;;;;11.87;9.40;;;9.80;99.90;;;;;;5113906;28;20168;-64
2022/03/01 10:53:37;;;;;;;12.60;8.30;;;10.10;99.90;;;;;;5113741;28;20204;-64
2022/03/01 10:56:10;;;;;;;12.57;9.10;;;10.10;99.90;;;;;;5113843;28;20164;-64
2022/03/01 10:58:38;;;;;;;11.83;9.10;;;10.30;99.90;;;;;;5113681;28;20161;-63
2022/03/01 11:01:07;;;;;;;14.57;8.90;;;10.30;99.90;;;;;;5113713;28;20169;-64
2022/03/01 11:03:33;;;;;;;13.43;8.43;;;10.40;99.90;;;;;;5113478;28;20188;-64
2022/03/01 11:06:01;;;;;;;13.23;8.40;;;10.60;99.90;;;;;;5113598;28;20184;-63
2022/03/01 11:08:35;;;;;;;12.33;9.07;;;10.70;99.90;;;;;;5112350;28;20267;-64
2022/03/01 11:11:04;;;;;;;11.80;8.80;;;11.00;99.90;;;;;;5113600;28;20189;-64
2022/03/01 11:13:34;;;;;;;13.93;9.20;;;11.10;99.90;;;;;;5113682;28;20204;-64
2022/03/01 11:16:18;;;;;;;12.35;8.65;;;11.40;99.90;;;;;;5113899;28;20641;-65
2022/03/01 11:19:14;;;;;;;12.65;8.98;;;11.60;99.90;;;;;;5113534;28;20172;-63
2022/03/01 11:21:47;;;;;;;13.25;9.00;;;11.50;99.90;;;;;;5113633;28;20203;-64
2022/03/01 11:24:17;;;;;;;15.85;9.93;;;11.40;99.90;;;;;;5113549;28;20212;-63
2022/03/01 11:26:44;;;;;;;13.80;9.13;;;11.20;99.90;;;;;;5113856;28;20153;-64
2022/03/01 11:29:15;;;;;;;12.48;8.85;;;11.20;99.90;;;;;;5113539;28;20164;-64
2022/03/01 11:31:42;;;;;;;11.68;8.57;;;11.00;99.90;;;;;;5115699;28;20189;-63
2022/03/01 11:34:20;;;;;;;13.43;9.30;;;11.00;99.90;;;;;;5115870;28;20211;-63
2022/03/01 11:36:53;;;;;;;14.13;10.10;;;11.00;99.90;;;;;;5118112;28;20181;-63
2022/03/01 11:39:24;;;;;;;14.03;9.93;;;11.10;99.90;;;;;;5117723;28;20199;-63
2022/03/01 11:41:52;;;;;;;13.50;9.27;;;11.30;99.90;;;;;;5115931;28;20199;-63
2022/03/01 11:44:23;;;;;;;15.80;9.93;;;11.50;99.90;;;;;;5117030;28;20188;-63
2022/03/01 11:46:50;;;;;;;14.77;9.57;;;11.40;99.90;;;;;;5117084;28;20164;-61
2022/03/01 11:49:19;;;;;;;14.07;10.00;;;11.10;99.90;;;;;;5117252;28;20164;-63
2022/03/01 11:51:56;;;;;;;14.35;9.45;;;11.00;99.90;;;;;;5117632;28;20593;-63
2022/03/01 11:54:24;;;;;;;14.27;9.37;;;10.90;99.90;;;;;;5117007;28;20192;-63
2022/03/01 11:56:54;;;;;;;13.77;9.13;;;10.70;99.90;;;;;;5117368;28;20177;-62
2022/03/01 11:59:21;;;;;;;12.73;9.43;;;10.50;99.90;;;;;;5117283;28;20248;-63
2022/03/01 12:01:47;;;;;;;13.90;9.63;;;10.50;99.90;;;;;;5116803;28;20165;-63
2022/03/01 12:04:18;;;;;;;15.40;9.87;;;10.50;99.90;;;;;;5116761;28;20203;-64
2022/03/01 12:06:45;;;;;;;15.13;9.60;;;10.40;99.90;;;;;;5116946;28;20165;-63
2022/03/01 12:09:11;;;;;;;14.53;11.13;;;10.40;99.90;;;;;;5116687;28;20166;-64
2022/03/01 12:11:46;;;;;;;13.07;10.60;;;10.20;99.90;;;;;;5116630;28;20504;-63
2022/03/01 12:14:16;;;;;;;15.83;12.07;;;10.30;99.90;;;;;;5116756;27;20218;-63
2022/03/01 12:16:42;;;;;;;13.33;10.43;;;10.30;99.90;;;;;;5116783;28;20214;-63
2022/03/01 12:19:17;;;;;;;15.47;9.97;;;10.40;99.90;;;;;;5116840;28;20161;-62
2022/03/01 12:21:51;;;;;;;20.73;14.02;;;10.60;99.90;;;;;;5116879;28;20201;-63
2022/03/01 12:24:18;;;;;;;15.75;12.70;;;10.80;99.90;;;;;;5116337;28;20192;-65
2022/03/01 12:26:52;;;;;;;15.27;10.05;;;10.80;99.90;;;;;;5116653;27;20176;-65
2022/03/01 12:29:20;;;;;;;13.77;10.23;;;10.90;99.90;;;;;;5116877;28;20156;-66
2022/03/01 12:32:03;;;;;;;14.77;9.60;;;11.20;99.90;;;;;;5116572;27;20192;-63
2022/03/01 12:34:31;;;;;;;13.20;9.70;;;11.60;99.90;;;;;;5116519;28;20207;-63
2022/03/01 12:36:59;;;;;;;15.10;9.38;;;11.90;99.90;;;;;;5116385;28;20247;-63